Time;durP1;ratioP1;P1;durP2;ratioP2;P2;SDS_P1;SDS_P2;PMS_P1;PMS_P2;Temp;Humidity;BMP_temperature;BMP_pressure;BME280_temperature;BME280_humidity;BME280_pressure;Samples;Min_cycle;Max_cycle;Signal;HPM_P1;HPM_P2
2022/07/17 00:00:40;;;;;;;5.22;1.90;;;;;;;;;;5008236;28;20045;-74
2022/07/17 00:03:06;;;;;;;5.05;1.92;;;;;;;;;;5008127;28;20030;-74
2022/07/17 00:05:31;;;;;;;4.72;1.92;;;;;;;;;;5009558;28;20034;-76
2022/07/17 00:07:57;;;;;;;5.57;1.40;;;;;;;;;;5009838;28;20129;-74
2022/07/17 00:10:22;;;;;;;3.15;1.42;;;;;;;;;;5009872;28;20069;-74
2022/07/17 00:12:48;;;;;;;7.10;1.83;;;;;;;;;;5008088;28;20037;-73
2022/07/17 00:15:13;;;;;;;4.38;1.38;;;;;;;;;;5009435;28;20044;-74
2022/07/17 00:17:39;;;;;;;4.35;1.63;;;;;;;;;;5008265;28;20053;-74
2022/07/17 00:20:06;;;;;;;8.10;1.75;;;;;;;;;;5009245;28;20079;-74
2022/07/17 00:22:31;;;;;;;6.63;2.05;;;;;;;;;;5008359;28;20124;-74
2022/07/17 00:24:56;;;;;;;6.90;2.50;;;;;;;;;;5007841;28;20449;-74
2022/07/17 00:27:22;;;;;;;6.60;1.70;;;;;;;;;;5024419;28;20479;-74
2022/07/17 00:29:47;;;;;;;2.92;2.10;;;;;;;;;;5008791;28;20050;-74
2022/07/17 00:32:13;;;;;;;6.53;2.08;;;;;;;;;;5024813;28;20026;-74
2022/07/17 00:34:38;;;;;;;8.23;2.33;;;;;;;;;;5007944;28;20398;-74
2022/07/17 00:37:04;;;;;;;9.90;2.67;;;;;;;;;;5007742;28;20545;-74
2022/07/17 00:39:31;;;;;;;4.07;2.13;;;;;;;;;;5007925;28;20029;-74
2022/07/17 00:41:57;;;;;;;3.97;2.40;;;;;;;;;;5007763;28;20049;-74
2022/07/17 00:44:26;;;;;;;8.70;3.50;;;;;;;;;;5009528;28;20319;-74
2022/07/17 00:46:51;;;;;;;8.05;3.08;;;;;;;;;;5009251;28;20541;-73
2022/07/17 00:49:17;;;;;;;8.98;3.40;;;;;;;;;;5007702;28;20065;-74
2022/07/17 00:51:42;;;;;;;8.10;3.20;;;;;;;;;;5007914;28;20042;-73
2022/07/17 00:54:08;;;;;;;5.85;2.67;;;;;;;;;;5009708;28;20240;-74
2022/07/17 00:56:34;;;;;;;9.85;2.92;;;;;;;;;;5013244;28;20045;-74
2022/07/17 00:59:01;;;;;;;7.65;3.38;;;;;;;;;;5013180;28;20030;-74
2022/07/17 01:01:26;;;;;;;3.47;2.55;;;;;;;;;;5012134;28;20021;-74
2022/07/17 01:03:52;;;;;;;8.88;2.75;;;;;;;;;;5012466;28;20036;-74
2022/07/17 01:06:17;;;;;;;6.20;2.83;;;;;;;;;;5013682;28;20254;-74
2022/07/17 01:08:43;;;;;;;10.10;2.75;;;;;;;;;;5011725;28;20036;-74
2022/07/17 01:11:09;;;;;;;6.22;3.20;;;;;;;;;;5011451;28;20029;-75
2022/07/17 01:13:35;;;;;;;6.50;2.33;;;;;;;;;;5011389;28;20478;-74
2022/07/17 01:16:00;;;;;;;5.30;2.63;;;;;;;;;;5011021;28;20030;-75
2022/07/17 01:18:26;;;;;;;5.68;2.53;;;;;;;;;;5012491;28;20147;-75
2022/07/17 01:20:51;;;;;;;9.32;3.60;;;;;;;;;;5012217;28;20040;-74
2022/07/17 01:23:18;;;;;;;5.45;2.90;;;;;;;;;;5012654;28;20014;-74
2022/07/17 01:25:45;;;;;;;3.00;2.28;;;;;;;;;;5012225;28;20034;-74
2022/07/17 01:28:11;;;;;;;9.82;3.17;;;;;;;;;;5011975;28;20026;-74
2022/07/17 01:30:44;;;;;;;5.43;2.53;;;;;;;;;;5012091;28;20061;-74
2022/07/17 01:33:11;;;;;;;7.45;2.75;;;;;;;;;;5010613;28;20037;-74
2022/07/17 01:35:36;;;;;;;8.23;2.83;;;;;;;;;;5012131;28;20116;-74
2022/07/17 01:38:02;;;;;;;8.20;2.70;;;;;;;;;;5011885;28;20116;-74
2022/07/17 01:40:27;;;;;;;5.28;2.50;;;;;;;;;;5010364;28;20034;-74
2022/07/17 01:42:53;;;;;;;7.15;2.83;;;;;;;;;;5010255;28;20021;-74
2022/07/17 01:45:19;;;;;;;7.57;2.60;;;;;;;;;;5026602;28;20083;-76
2022/07/17 01:47:44;;;;;;;6.38;2.47;;;;;;;;;;5011778;28;20390;-74
2022/07/17 01:50:11;;;;;;;8.43;2.63;;;;;;;;;;5011650;28;20036;-74
2022/07/17 01:52:39;;;;;;;6.57;2.70;;;;;;;;;;5010658;28;20460;-74
2022/07/17 01:55:06;;;;;;;3.47;2.63;;;;;;;;;;5009941;28;20128;-74
2022/07/17 01:57:32;;;;;;;6.63;2.72;;;;;;;;;;5011788;28;20030;-74
2022/07/17 01:59:58;;;;;;;4.85;2.65;;;;;;;;;;5010069;28;20045;-74
2022/07/17 02:02:23;;;;;;;7.65;2.80;;;;;;;;;;5026808;28;20417;-73
2022/07/17 02:04:49;;;;;;;7.20;4.05;;;;;;;;;;5010401;28;20072;-74
2022/07/17 02:07:14;;;;;;;4.68;2.47;;;;;;;;;;5010099;28;20088;-74
2022/07/17 02:09:40;;;;;;;9.23;2.42;;;;;;;;;;5010128;28;20463;-74
2022/07/17 02:12:06;;;;;;;5.70;2.90;;;;;;;;;;5011252;28;20040;-74
2022/07/17 02:14:32;;;;;;;11.07;2.92;;;;;;;;;;5011251;28;20022;-74
2022/07/17 02:16:58;;;;;;;16.27;9.50;;;;;;;;;;5011073;28;20029;-74
2022/07/17 02:19:23;;;;;;;5.13;2.70;;;;;;;;;;5010041;28;20045;-74
2022/07/17 02:21:49;;;;;;;6.53;2.80;;;;;;;;;;5009707;28;20029;-74
2022/07/17 02:24:14;;;;;;;5.35;2.75;;;;;;;;;;5011147;28;20394;-73
2022/07/17 02:26:40;;;;;;;4.70;2.65;;;;;;;;;;5009629;28;20359;-74
2022/07/17 02:29:06;;;;;;;8.23;4.13;;;;;;;;;;5011092;28;20141;-74
2022/07/17 02:31:31;;;;;;;5.40;2.60;;;;;;;;;;5011281;28;20430;-74
2022/07/17 02:33:57;;;;;;;5.65;2.10;;;;;;;;;;5011082;28;20037;-74
2022/07/17 02:36:23;;;;;;;3.97;2.33;;;;;;;;;;5009568;28;20030;-75
2022/07/17 02:38:48;;;;;;;9.40;2.88;;;;;;;;;;5009690;28;20034;-75
2022/07/17 02:41:15;;;;;;;3.58;2.50;;;;;;;;;;5009457;28;20165;-75
2022/07/17 02:43:41;;;;;;;3.97;2.67;;;;;;;;;;5009583;28;20440;-74
2022/07/17 02:46:07;;;;;;;5.88;2.65;;;;;;;;;;5010576;28;20105;-74
2022/07/17 02:48:32;;;;;;;8.60;2.75;;;;;;;;;;5009443;28;20044;-75
2022/07/17 02:50:58;;;;;;;5.20;3.00;;;;;;;;;;5009390;28;20382;-75
2022/07/17 02:53:23;;;;;;;5.25;2.60;;;;;;;;;;5010653;28;20030;-75
2022/07/17 02:55:49;;;;;;;4.25;2.65;;;;;;;;;;5010485;28;20312;-75
2022/07/17 02:58:14;;;;;;;4.78;2.10;;;;;;;;;;5008980;28;20029;-74
2022/07/17 03:00:40;;;;;;;5.72;2.75;;;;;;;;;;5010487;28;20593;-74
2022/07/17 03:03:06;;;;;;;5.82;2.78;;;;;;;;;;5009060;28;20029;-74
2022/07/17 03:05:31;;;;;;;4.53;2.40;;;;;;;;;;5010818;28;20040;-74
2022/07/17 03:07:57;;;;;;;3.45;2.50;;;;;;;;;;5010374;28;20034;-74
2022/07/17 03:10:22;;;;;;;8.65;3.30;;;;;;;;;;5010391;28;20056;-74
2022/07/17 03:12:48;;;;;;;7.63;2.78;;;;;;;;;;5008989;28;20072;-74
2022/07/17 03:15:14;;;;;;;8.57;2.90;;;;;;;;;;5008602;28;20040;-75
2022/07/17 03:17:40;;;;;;;3.88;2.72;;;;;;;;;;5008769;28;20029;-75
2022/07/17 03:20:07;;;;;;;9.10;3.00;;;;;;;;;;5008594;28;20048;-74
2022/07/17 03:22:32;;;;;;;7.28;3.25;;;;;;;;;;5008691;28;20029;-74
2022/07/17 03:24:58;;;;;;;7.22;2.80;;;;;;;;;;5024949;28;20026;-74
2022/07/17 03:27:23;;;;;;;4.85;2.72;;;;;;;;;;5010123;28;20034;-74
2022/07/17 03:29:49;;;;;;;11.98;3.60;;;;;;;;;;5009903;28;20049;-74
2022/07/17 03:32:14;;;;;;;9.18;3.40;;;;;;;;;;5009816;28;20493;-74
2022/07/17 03:34:40;;;;;;;4.70;3.00;;;;;;;;;;5008933;28;20122;-74
2022/07/17 03:37:05;;;;;;;7.47;3.25;;;;;;;;;;5008704;28;20056;-74
2022/07/17 03:39:31;;;;;;;4.32;2.85;;;;;;;;;;5010022;28;20119;-74
2022/07/17 03:41:56;;;;;;;10.23;3.35;;;;;;;;;;5009284;28;20580;-74
2022/07/17 03:44:22;;;;;;;8.88;2.80;;;;;;;;;;5012549;28;20568;-74
2022/07/17 03:46:48;;;;;;;5.13;2.92;;;;;;;;;;5009497;28;20048;-74
2022/07/17 03:49:13;;;;;;;7.90;3.13;;;;;;;;;;5008701;28;20038;-74
2022/07/17 03:51:39;;;;;;;8.90;3.53;;;;;;;;;;5024941;28;20151;-74
2022/07/17 03:54:06;;;;;;;7.13;2.70;;;;;;;;;;5008621;28;20042;-74
2022/07/17 03:56:31;;;;;;;7.18;3.30;;;;;;;;;;5009216;28;20398;-74
2022/07/17 03:58:57;;;;;;;6.68;3.20;;;;;;;;;;5014385;28;20049;-74
2022/07/17 04:01:22;;;;;;;6.15;2.83;;;;;;;;;;5032723;28;20059;-74
2022/07/17 04:03:48;;;;;;;8.98;2.90;;;;;;;;;;5015515;28;20092;-74
2022/07/17 04:06:13;;;;;;;4.55;3.22;;;;;;;;;;5013990;28;20065;-75
2022/07/17 04:08:39;;;;;;;13.32;3.92;;;;;;;;;;5008567;28;20112;-75
2022/07/17 04:11:05;;;;;;;4.45;3.15;;;;;;;;;;5008245;28;20390;-75
2022/07/17 04:13:30;;;;;;;6.47;3.28;;;;;;;;;;5008300;28;20437;-75
2022/07/17 04:15:56;;;;;;;8.32;4.57;;;;;;;;;;5009417;28;20037;-75
2022/07/17 04:18:24;;;;;;;7.25;3.08;;;;;;;;;;5007937;28;20112;-75
2022/07/17 04:20:51;;;;;;;6.28;2.65;;;;;;;;;;5009475;28;20042;-75
2022/07/17 04:23:16;;;;;;;7.75;2.97;;;;;;;;;;5007763;28;20037;-75
2022/07/17 04:25:44;;;;;;;5.03;2.75;;;;;;;;;;5024581;28;20095;-75
2022/07/17 04:28:10;;;;;;;8.35;3.17;;;;;;;;;;4991819;28;20069;-74
2022/07/17 04:30:36;;;;;;;6.43;2.83;;;;;;;;;;5011738;28;20062;-74
2022/07/17 04:33:02;;;;;;;9.05;3.15;;;;;;;;;;5013306;28;20092;-74
2022/07/17 04:35:27;;;;;;;8.70;3.50;;;;;;;;;;5011848;28;20030;-74
2022/07/17 04:37:53;;;;;;;6.47;3.58;;;;;;;;;;5011661;28;20124;-74
2022/07/17 04:40:19;;;;;;;7.60;2.60;;;;;;;;;;5012813;28;20180;-75
2022/07/17 04:42:45;;;;;;;7.78;2.58;;;;;;;;;;5013248;28;20049;-75
2022/07/17 04:45:11;;;;;;;5.07;2.95;;;;;;;;;;5011488;28;20022;-75
2022/07/17 04:47:36;;;;;;;3.67;2.33;;;;;;;;;;5011513;28;20095;-74
2022/07/17 04:50:02;;;;;;;5.40;3.28;;;;;;;;;;5011274;28;20076;-74
2022/07/17 04:52:28;;;;;;;4.68;2.40;;;;;;;;;;5012827;28;20469;-74
2022/07/17 04:54:53;;;;;;;5.05;2.70;;;;;;;;;;5012645;28;20026;-74
2022/07/17 04:57:18;;;;;;;5.28;2.60;;;;;;;;;;5012648;28;20061;-74
2022/07/17 04:59:44;;;;;;;6.80;2.47;;;;;;;;;;5012912;28;20052;-74
2022/07/17 05:02:10;;;;;;;7.78;2.70;;;;;;;;;;4994781;28;20123;-73
2022/07/17 05:04:35;;;;;;;5.78;2.38;;;;;;;;;;5011803;28;20025;-74
2022/07/17 05:07:01;;;;;;;6.60;2.25;;;;;;;;;;5012749;28;20092;-73
2022/07/17 05:09:26;;;;;;;9.38;4.90;;;;;;;;;;5027954;28;20473;-73
2022/07/17 05:11:52;;;;;;;5.28;3.30;;;;;;;;;;5011121;28;20462;-74
2022/07/17 05:14:17;;;;;;;6.50;2.75;;;;;;;;;;5010949;28;20034;-75
2022/07/17 05:16:43;;;;;;;7.38;1.90;;;;;;;;;;5011325;28;20080;-75
2022/07/17 05:19:08;;;;;;;7.25;2.03;;;;;;;;;;5010902;28;20034;-74
2022/07/17 05:21:34;;;;;;;4.40;2.20;;;;;;;;;;5012296;28;20386;-74
2022/07/17 05:23:59;;;;;;;6.32;2.83;;;;;;;;;;5012561;28;20061;-75
2022/07/17 05:26:25;;;;;;;3.83;1.80;;;;;;;;;;5012200;28;20041;-74
2022/07/17 05:28:50;;;;;;;7.45;2.17;;;;;;;;;;5010609;28;20478;-75
2022/07/17 05:31:16;;;;;;;7.25;2.40;;;;;;;;;;5012032;28;20050;-74
2022/07/17 05:33:42;;;;;;;5.07;2.17;;;;;;;;;;5012031;28;20037;-75
2022/07/17 05:36:08;;;;;;;6.00;2.00;;;;;;;;;;5011028;28;20486;-74
2022/07/17 05:38:33;;;;;;;5.40;2.03;;;;;;;;;;5012166;28;20022;-74
2022/07/17 05:40:59;;;;;;;7.85;2.63;;;;;;;;;;5012264;28;20033;-74
2022/07/17 05:43:24;;;;;;;4.28;1.55;;;;;;;;;;5010436;28;20050;-74
2022/07/17 05:45:53;;;;;;;7.22;1.67;;;;;;;;;;5012435;28;20033;-74
2022/07/17 05:48:20;;;;;;;6.38;1.67;;;;;;;;;;5011763;28;20060;-74
2022/07/17 05:50:46;;;;;;;3.85;1.83;;;;;;;;;;5011974;28;20478;-74
2022/07/17 05:53:11;;;;;;;5.28;1.70;;;;;;;;;;5011849;28;20030;-74
2022/07/17 05:55:37;;;;;;;6.13;1.77;;;;;;;;;;5011907;28;20029;-74
2022/07/17 05:58:02;;;;;;;5.88;1.98;;;;;;;;;;5010308;28;20029;-75
2022/07/17 06:00:29;;;;;;;6.93;2.00;;;;;;;;;;5011693;28;20033;-75
2022/07/17 06:02:54;;;;;;;3.95;1.73;;;;;;;;;;5011702;28;20137;-75
2022/07/17 06:05:20;;;;;;;3.78;1.80;;;;;;;;;;5010030;28;20112;-74
2022/07/17 06:07:45;;;;;;;2.85;1.27;;;;;;;;;;5010084;28;20048;-75
2022/07/17 06:10:11;;;;;;;6.38;2.03;;;;;;;;;;5009861;28;20478;-75
2022/07/17 06:12:36;;;;;;;7.93;1.98;;;;;;;;;;5009966;28;20493;-75
2022/07/17 06:15:02;;;;;;;7.43;2.05;;;;;;;;;;5011477;28;20033;-75
2022/07/17 06:17:28;;;;;;;4.93;1.48;;;;;;;;;;5009494;28;20150;-74
2022/07/17 06:19:54;;;;;;;10.63;2.00;;;;;;;;;;5011757;28;20018;-75
2022/07/17 06:22:21;;;;;;;4.43;1.70;;;;;;;;;;5009660;28;20517;-75
2022/07/17 06:24:47;;;;;;;2.53;1.23;;;;;;;;;;5011113;28;20029;-74
2022/07/17 06:27:13;;;;;;;3.38;1.42;;;;;;;;;;5011016;28;20029;-75
2022/07/17 06:29:39;;;;;;;5.78;1.75;;;;;;;;;;5010981;28;20070;-75
2022/07/17 06:32:05;;;;;;;5.43;1.80;;;;;;;;;;5026258;28;20109;-75
2022/07/17 06:34:30;;;;;;;3.42;1.58;;;;;;;;;;5009527;28;20501;-75
2022/07/17 06:36:56;;;;;;;4.90;1.52;;;;;;;;;;5010957;28;20534;-75
2022/07/17 06:39:21;;;;;;;6.03;1.25;;;;;;;;;;5010795;28;20037;-75
2022/07/17 06:41:47;;;;;;;8.73;1.25;;;;;;;;;;5009791;28;20064;-75
2022/07/17 06:44:13;;;;;;;4.50;1.48;;;;;;;;;;5009484;28;20072;-74
2022/07/17 06:46:38;;;;;;;8.38;1.35;;;;;;;;;;5009894;28;20029;-75
2022/07/17 06:49:06;;;;;;;6.03;1.20;;;;;;;;;;5009414;28;20040;-75
2022/07/17 06:51:32;;;;;;;5.60;1.40;;;;;;;;;;5009317;28;20125;-76
2022/07/17 06:53:58;;;;;;;5.45;1.63;;;;;;;;;;5009434;28;20121;-74
2022/07/17 06:56:23;;;;;;;5.57;1.83;;;;;;;;;;5009415;28;20037;-76
2022/07/17 06:58:49;;;;;;;4.03;1.20;;;;;;;;;;5011117;28;20044;-75
2022/07/17 07:01:14;;;;;;;9.65;1.45;;;;;;;;;;5009540;28;20034;-75
2022/07/17 07:03:39;;;;;;;10.02;1.95;;;;;;;;;;5014786;28;20025;-75
2022/07/17 07:06:05;;;;;;;4.22;1.42;;;;;;;;;;5011669;28;20064;-74
2022/07/17 07:08:30;;;;;;;5.75;1.65;;;;;;;;;;5010862;28;20026;-74
2022/07/17 07:10:56;;;;;;;7.72;1.70;;;;;;;;;;4994021;28;20470;-75
2022/07/17 07:13:22;;;;;;;6.13;1.45;;;;;;;;;;5014219;28;20052;-75
2022/07/17 07:15:47;;;;;;;5.20;1.35;;;;;;;;;;5012724;28;20036;-74
2022/07/17 07:18:13;;;;;;;8.48;1.40;;;;;;;;;;5010456;28;20104;-74
2022/07/17 07:20:38;;;;;;;3.50;1.30;;;;;;;;;;5009173;28;20402;-75
2022/07/17 07:23:04;;;;;;;9.85;1.50;;;;;;;;;;5010328;28;20026;-75
2022/07/17 07:25:30;;;;;;;5.72;2.03;;;;;;;;;;5008797;28;20092;-76
2022/07/17 07:27:56;;;;;;;6.55;1.42;;;;;;;;;;5009929;28;20481;-76
2022/07/17 07:30:21;;;;;;;8.05;1.60;;;;;;;;;;5008457;28;20085;-75
2022/07/17 07:32:46;;;;;;;7.10;1.67;;;;;;;;;;5009192;28;20038;-76
2022/07/17 07:35:12;;;;;;;4.70;2.05;;;;;;;;;;5008658;28;20386;-75
2022/07/17 07:37:38;;;;;;;6.80;1.67;;;;;;;;;;5009229;28;20056;-74
2022/07/17 07:40:06;;;;;;;7.38;1.50;;;;;;;;;;5010433;28;20030;-75
2022/07/17 07:42:32;;;;;;;6.00;1.25;;;;;;;;;;5010117;28;20037;-75
2022/07/17 07:44:57;;;;;;;3.33;1.20;;;;;;;;;;5008455;28;20026;-75
2022/07/17 07:47:23;;;;;;;4.28;1.20;;;;;;;;;;5008297;28;20034;-75
2022/07/17 07:49:48;;;;;;;7.88;1.30;;;;;;;;;;5008635;28;20084;-76
2022/07/17 07:52:14;;;;;;;4.47;1.45;;;;;;;;;;5010323;28;20030;-75
2022/07/17 07:54:40;;;;;;;5.13;1.27;;;;;;;;;;5008714;28;20469;-77
2022/07/17 07:57:05;;;;;;;5.25;1.67;;;;;;;;;;5009069;28;20030;-75
2022/07/17 07:59:34;;;;;;;8.68;1.55;;;;;;;;;;5009895;28;20038;-75
2022/07/17 08:02:00;;;;;;;9.13;2.75;;;;;;;;;;5010157;28;20056;-75
2022/07/17 08:04:26;;;;;;;9.02;2.00;;;;;;;;;;5024062;28;20049;-76
2022/07/17 08:06:52;;;;;;;8.13;1.95;;;;;;;;;;5009964;28;20062;-76
2022/07/17 08:09:18;;;;;;;6.30;2.08;;;;;;;;;;5008288;28;20037;-75
2022/07/17 08:11:43;;;;;;;6.13;1.15;;;;;;;;;;5008368;28;20116;-74
2022/07/17 08:14:09;;;;;;;5.70;1.15;;;;;;;;;;5009547;28;20053;-76
2022/07/17 08:16:35;;;;;;;9.70;1.52;;;;;;;;;;5009648;28;20030;-75
2022/07/17 08:19:01;;;;;;;7.40;1.67;;;;;;;;;;5025039;28;20036;-76
2022/07/17 08:21:26;;;;;;;5.50;1.77;;;;;;;;;;5008188;28;20030;-76
2022/07/17 08:23:52;;;;;;;9.23;1.42;;;;;;;;;;5008715;28;20450;-76
2022/07/17 08:26:17;;;;;;;7.60;1.02;;;;;;;;;;5008096;28;20033;-75
2022/07/17 08:28:43;;;;;;;7.28;1.33;;;;;;;;;;5008329;28;20117;-76
2022/07/17 08:31:08;;;;;;;6.55;1.00;;;;;;;;;;5007895;28;20137;-78
2022/07/17 08:33:34;;;;;;;6.43;1.30;;;;;;;;;;5007981;28;20061;-76
2022/07/17 08:35:59;;;;;;;5.15;1.40;;;;;;;;;;5008417;28;20018;-76
2022/07/17 08:38:25;;;;;;;4.13;0.90;;;;;;;;;;5008121;28;20420;-75
2022/07/17 08:40:53;;;;;;;5.90;1.10;;;;;;;;;;5009782;28;20044;-76
2022/07/17 08:43:19;;;;;;;15.60;2.10;;;;;;;;;;5008015;28;20032;-75
2022/07/17 08:45:45;;;;;;;6.45;2.25;;;;;;;;;;5009709;28;20034;-75
2022/07/17 08:48:15;;;;;;;6.78;1.33;;;;;;;;;;5008410;28;20037;-76
2022/07/17 08:50:42;;;;;;;4.78;1.20;;;;;;;;;;5010048;28;20018;-76
2022/07/17 08:53:08;;;;;;;3.97;1.10;;;;;;;;;;5009656;28;20048;-76
2022/07/17 08:55:34;;;;;;;4.63;1.10;;;;;;;;;;5008828;28;20029;-75
2022/07/17 08:58:00;;;;;;;6.95;0.93;;;;;;;;;;5008355;28;20033;-76
2022/07/17 09:00:27;;;;;;;4.32;1.80;;;;;;;;;;5008143;28;20036;-75
2022/07/17 09:02:59;;;;;;;3.65;1.25;;;;;;;;;;5012424;28;20040;-75
2022/07/17 09:05:29;;;;;;;3.10;1.10;;;;;;;;;;5022154;28;20102;-76
2022/07/17 09:07:55;;;;;;;4.72;1.00;;;;;;;;;;5025559;28;20014;-76
2022/07/17 09:10:34;;;;;;;5.07;2.40;;;;;;;;;;5011411;28;20121;-76
2022/07/17 09:13:00;;;;;;;4.53;1.67;;;;;;;;;;5020632;28;20042;-77
2022/07/17 09:15:27;;;;;;;5.13;1.38;;;;;;;;;;5015256;28;20068;-76
2022/07/17 09:17:55;;;;;;;8.35;1.25;;;;;;;;;;5014405;28;20022;-76
2022/07/17 09:20:21;;;;;;;8.27;1.63;;;;;;;;;;5014201;28;20038;-76
2022/07/17 09:23:04;;;;;;;5.43;0.90;;;;;;;;;;5011651;28;20117;-76
2022/07/17 09:25:43;;;;;;;5.18;1.25;;;;;;;;;;5012952;28;20025;-75
2022/07/17 09:28:12;;;;;;;4.22;1.15;;;;;;;;;;4994752;28;20532;-75
2022/07/17 09:30:41;;;;;;;2.30;0.93;;;;;;;;;;5010417;28;20177;-75
2022/07/17 09:33:12;;;;;;;5.57;0.73;;;;;;;;;;5011187;28;20032;-76
2022/07/17 09:35:50;;;;;;;7.13;2.13;;;;;;;;;;5010759;28;20029;-76
2022/07/17 09:38:27;;;;;;;8.57;3.05;;;;;;;;;;5012495;28;20030;-76
2022/07/17 09:41:15;;;;;;;7.88;1.45;;;;;;;;;;5012110;28;20417;-77
2022/07/17 09:43:45;;;;;;;2.08;1.02;;;;;;;;;;5010850;28;20057;-75
2022/07/17 09:46:22;;;;;;;6.57;1.13;;;;;;;;;;5010742;28;20397;-77
2022/07/17 09:48:53;;;;;;;4.03;0.95;;;;;;;;;;5010657;28;20096;-74
2022/07/17 09:51:30;;;;;;;6.25;1.50;;;;;;;;;;5010322;28;20446;-76
2022/07/17 09:54:01;;;;;;;4.50;1.10;;;;;;;;;;5011840;28;20033;-77
2022/07/17 09:56:29;;;;;;;6.00;1.60;;;;;;;;;;5010392;28;20025;-75
2022/07/17 09:59:05;;;;;;;2.85;1.20;;;;;;;;;;5010626;28;20036;-77
2022/07/17 10:01:31;;;;;;;5.50;1.50;;;;;;;;;;5010047;28;20076;-75
2022/07/17 10:03:57;;;;;;;4.15;1.15;;;;;;;;;;5010568;28;20363;-76
2022/07/17 10:06:24;;;;;;;7.75;1.33;;;;;;;;;;5010321;28;20036;-77
2022/07/17 10:08:51;;;;;;;3.95;1.13;;;;;;;;;;4994375;28;20109;-76
2022/07/17 10:11:20;;;;;;;8.50;1.00;;;;;;;;;;5011802;28;20412;-76
2022/07/17 10:13:47;;;;;;;7.82;1.55;;;;;;;;;;5010975;28;20046;-76
2022/07/17 10:16:13;;;;;;;11.73;1.98;;;;;;;;;;5026898;28;20060;-77
2022/07/17 10:18:44;;;;;;;3.85;1.13;;;;;;;;;;5010707;28;20057;-75
2022/07/17 10:21:09;;;;;;;6.17;1.27;;;;;;;;;;5010499;28;20413;-75
2022/07/17 10:23:36;;;;;;;6.43;1.63;;;;;;;;;;5011325;28;20333;-75
2022/07/17 10:26:02;;;;;;;4.95;0.98;;;;;;;;;;5010693;28;20735;-77
2022/07/17 10:28:43;;;;;;;5.25;1.05;;;;;;;;;;5011973;28;20293;-77
2022/07/17 10:31:09;;;;;;;1.65;0.82;;;;;;;;;;5009994;28;20132;-76
2022/07/17 10:33:35;;;;;;;3.88;1.13;;;;;;;;;;5009978;28;20034;-77
2022/07/17 10:36:00;;;;;;;1.65;1.10;;;;;;;;;;5011487;28;20025;-76
2022/07/17 10:38:27;;;;;;;6.25;0.95;;;;;;;;;;5011359;28;20033;-77
2022/07/17 10:41:03;;;;;;;2.30;0.80;;;;;;;;;;4993601;28;20034;-75
2022/07/17 10:43:43;;;;;;;5.35;1.65;;;;;;;;;;5026177;28;20026;-75
2022/07/17 10:46:08;;;;;;;4.30;1.00;;;;;;;;;;5009571;28;20037;-76
2022/07/17 10:48:35;;;;;;;4.35;1.50;;;;;;;;;;5009940;28;20041;-76
2022/07/17 10:51:00;;;;;;;1.80;0.90;;;;;;;;;;5009562;28;20030;-76
2022/07/17 10:53:30;;;;;;;4.22;1.20;;;;;;;;;;5025547;28;20466;-76
2022/07/17 10:55:58;;;;;;;7.90;1.38;;;;;;;;;;5010689;28;20389;-76
2022/07/17 10:58:25;;;;;;;6.72;1.40;;;;;;;;;;5010607;28;20040;-76
2022/07/17 11:01:01;;;;;;;3.60;1.17;;;;;;;;;;5010566;28;20030;-76
2022/07/17 11:03:28;;;;;;;4.78;1.38;;;;;;;;;;5010597;28;20049;-76
2022/07/17 11:05:53;;;;;;;4.43;1.30;;;;;;;;;;5009226;28;20025;-76
2022/07/17 11:08:19;;;;;;;1.40;1.00;;;;;;;;;;5009707;28;20470;-75
2022/07/17 11:10:45;;;;;;;5.38;1.00;;;;;;;;;;5009084;28;20076;-76
2022/07/17 11:13:13;;;;;;;4.18;0.90;;;;;;;;;;5009039;28;20470;-76
2022/07/17 11:15:44;;;;;;;3.90;1.40;;;;;;;;;;5008962;28;20539;-75
2022/07/17 11:18:20;;;;;;;1.80;0.85;;;;;;;;;;5009417;28;20030;-76
2022/07/17 11:20:59;;;;;;;4.72;1.25;;;;;;;;;;5009154;28;20040;-76
2022/07/17 11:23:29;;;;;;;3.78;1.48;;;;;;;;;;5010297;28;20022;-76
2022/07/17 11:26:06;;;;;;;6.57;1.17;;;;;;;;;;5009173;28;20033;-76
2022/07/17 11:28:38;;;;;;;3.40;0.88;;;;;;;;;;5008972;28;20084;-76
2022/07/17 11:31:16;;;;;;;6.68;1.00;;;;;;;;;;5010006;28;20054;-75
2022/07/17 11:33:56;;;;;;;4.38;1.00;;;;;;;;;;5008952;28;20088;-76
2022/07/17 11:36:41;;;;;;;8.43;1.20;;;;;;;;;;5009329;28;20302;-76
2022/07/17 11:39:18;;;;;;;7.65;1.30;;;;;;;;;;5008650;28;20026;-76
2022/07/17 11:41:47;;;;;;;5.85;1.13;;;;;;;;;;5008476;28;20406;-76
2022/07/17 11:44:18;;;;;;;5.15;1.35;;;;;;;;;;5009880;28;20022;-77
2022/07/17 11:46:45;;;;;;;;;;;;;;;;;;5008679;28;20513;-76
2022/07/17 11:49:23;;;;;;;7.35;0.98;;;;;;;;;;5009947;28;19956;-76
2022/07/17 11:51:48;;;;;;;2.75;1.15;;;;;;;;;;5008644;28;20026;-77
2022/07/17 11:54:16;;;;;;;1.30;0.90;;;;;;;;;;5008719;28;20036;-76
2022/07/17 11:56:43;;;;;;;7.38;1.20;;;;;;;;;;5009542;28;20026;-75
2022/07/17 11:59:10;;;;;;;5.15;1.20;;;;;;;;;;5010091;28;20397;-75
2022/07/17 12:01:40;;;;;;;7.15;1.50;;;;;;;;;;5008281;28;20026;-76
2022/07/17 12:04:09;;;;;;;3.20;1.17;;;;;;;;;;5008301;28;20033;-77
2022/07/17 12:06:35;;;;;;;6.28;1.73;;;;;;;;;;5009231;28;20084;-76
2022/07/17 12:09:01;;;;;;;3.97;1.40;;;;;;;;;;5010183;28;20089;-75
2022/07/17 12:11:27;;;;;;;5.13;1.00;;;;;;;;;;5008072;28;20029;-76
2022/07/17 12:13:52;;;;;;;2.83;1.27;;;;;;;;;;5009555;28;20387;-75
2022/07/17 12:16:30;;;;;;;3.85;1.40;;;;;;;;;;5008523;28;20026;-76
2022/07/17 12:19:10;;;;;;;4.53;1.30;;;;;;;;;;5010024;28;20051;-77
2022/07/17 12:22:01;;;;;;;5.38;1.38;;;;;;;;;;5007706;28;20026;-76
2022/07/17 12:24:30;;;;;;;5.05;1.30;;;;;;;;;;5008206;28;20029;-76
2022/07/17 12:27:00;;;;;;;8.73;1.33;;;;;;;;;;5008278;28;20520;-76
2022/07/17 12:29:26;;;;;;;5.57;1.20;;;;;;;;;;4991851;28;20119;-76
2022/07/17 12:32:01;;;;;;;2.80;1.30;;;;;;;;;;5009915;28;20073;-75
2022/07/17 12:34:26;;;;;;;1.67;0.73;;;;;;;;;;5009108;28;20084;-75
2022/07/17 12:36:52;;;;;;;4.18;1.95;;;;;;;;;;5007837;28;20030;-76
2022/07/17 12:39:17;;;;;;;9.15;4.65;;;;;;;;;;5009218;28;20061;-77
2022/07/17 12:41:43;;;;;;;8.93;1.90;;;;;;;;;;5007782;28;20513;-77
2022/07/17 12:44:08;;;;;;;4.65;1.17;;;;;;;;;;5008480;28;20395;-76
2022/07/17 12:46:34;;;;;;;3.88;1.10;;;;;;;;;;5009308;28;20424;-78
2022/07/17 12:48:59;;;;;;;6.30;1.50;;;;;;;;;;5008048;28;20033;-77
2022/07/17 12:51:25;;;;;;;3.85;1.42;;;;;;;;;;5013237;28;20108;-76
2022/07/17 12:53:50;;;;;;;7.80;3.40;;;;;;;;;;5011576;28;20397;-76
2022/07/17 12:56:16;;;;;;;2.88;2.00;;;;;;;;;;5011853;28;20492;-76
2022/07/17 12:58:41;;;;;;;7.40;1.35;;;;;;;;;;5011523;28;20112;-76
2022/07/17 13:01:07;;;;;;;5.72;2.33;;;;;;;;;;5011992;28;20156;-77
2022/07/17 13:03:33;;;;;;;3.70;1.27;;;;;;;;;;5012908;28;20161;-78
2022/07/17 13:06:00;;;;;;;7.72;3.65;;;;;;;;;;5013071;28;20022;-77
2022/07/17 13:08:27;;;;;;;8.88;2.58;;;;;;;;;;5011543;28;20029;-77
2022/07/17 13:10:53;;;;;;;5.05;1.10;;;;;;;;;;4995218;28;20030;-76
2022/07/17 13:13:19;;;;;;;6.03;1.70;;;;;;;;;;5027879;28;20018;-77
2022/07/17 13:15:44;;;;;;;32.50;3.85;;;;;;;;;;5012295;28;20049;-75
2022/07/17 13:18:10;;;;;;;15.68;1.60;;;;;;;;;;5011060;28;20026;-78
2022/07/17 13:20:36;;;;;;;1.88;0.90;;;;;;;;;;5011088;28;20080;-76
2022/07/17 13:23:02;;;;;;;4.97;0.93;;;;;;;;;;5012673;28;20089;-76
2022/07/17 13:25:27;;;;;;;3.97;0.98;;;;;;;;;;5011090;28;20026;-77
2022/07/17 13:27:53;;;;;;;2.13;1.08;;;;;;;;;;5010680;28;20123;-75
2022/07/17 13:30:19;;;;;;;4.78;1.25;;;;;;;;;;5010723;28;20057;-77
2022/07/17 13:32:45;;;;;;;3.92;1.02;;;;;;;;;;5012691;28;20393;-80
2022/07/17 13:35:11;;;;;;;4.05;1.20;;;;;;;;;;5015123;28;20034;-80
2022/07/17 13:37:37;;;;;;;4.25;1.58;;;;;;;;;;5012729;28;20021;-77
2022/07/17 13:40:05;;;;;;;5.88;1.30;;;;;;;;;;5013568;28;20029;-78
2022/07/17 13:42:34;;;;;;;4.75;0.98;;;;;;;;;;5012450;28;20538;-79
2022/07/17 13:44:59;;;;;;;4.50;1.60;;;;;;;;;;5011675;28;20405;-76
2022/07/17 13:47:25;;;;;;;4.78;1.83;;;;;;;;;;5011426;28;20057;-77
2022/07/17 13:49:51;;;;;;;6.53;1.42;;;;;;;;;;5012907;28;20034;-81
2022/07/17 13:52:17;;;;;;;5.72;1.77;;;;;;;;;;5012696;28;20040;-79
2022/07/17 13:54:42;;;;;;;2.85;1.00;;;;;;;;;;5010665;28;20029;-78
2022/07/17 13:57:08;;;;;;;4.85;1.50;;;;;;;;;;5010505;28;20474;-77
2022/07/17 13:59:33;;;;;;;5.38;1.63;;;;;;;;;;5026719;28;20029;-77
2022/07/17 14:01:59;;;;;;;8.15;1.90;;;;;;;;;;5011096;28;20052;-76
2022/07/17 14:04:26;;;;;;;3.50;1.40;;;;;;;;;;5012804;28;20482;-77
2022/07/17 14:06:51;;;;;;;3.40;1.08;;;;;;;;;;5018044;28;20030;-76
2022/07/17 14:09:17;;;;;;;7.22;2.08;;;;;;;;;;5020289;28;20366;-79
2022/07/17 14:11:43;;;;;;;4.47;1.23;;;;;;;;;;5022374;28;20026;-77
2022/07/17 14:14:08;;;;;;;7.85;1.48;;;;;;;;;;5023072;28;20058;-76
2022/07/17 14:16:34;;;;;;;3.95;1.65;;;;;;;;;;5013408;28;20025;-75
2022/07/17 14:18:59;;;;;;;5.28;2.03;;;;;;;;;;5029390;28;20425;-78
2022/07/17 14:21:33;;;;;;;6.22;1.40;;;;;;;;;;5013851;28;20098;-77
2022/07/17 14:23:59;;;;;;;6.43;1.30;;;;;;;;;;5011983;28;20037;-76
2022/07/17 14:26:25;;;;;;;7.43;1.40;;;;;;;;;;5011045;28;20115;-77
2022/07/17 14:28:52;;;;;;;4.72;1.45;;;;;;;;;;5010385;28;20463;-77
2022/07/17 14:31:18;;;;;;;7.93;1.88;;;;;;;;;;5010281;28;20077;-75
2022/07/17 14:33:44;;;;;;;3.80;1.02;;;;;;;;;;5011515;28;20117;-78
2022/07/17 14:36:10;;;;;;;3.90;1.50;;;;;;;;;;5011643;28;20474;-77
2022/07/17 14:38:36;;;;;;;5.55;1.20;;;;;;;;;;5009777;28;20026;-79
2022/07/17 14:41:02;;;;;;;5.07;1.17;;;;;;;;;;5009756;28;20552;-77